createdAt,value
2023-02-03T00:00:01.503Z,78.51
2023-02-03T00:02:28.801Z,78.75
2023-02-03T00:04:56.306Z,78.25
2023-02-03T00:07:23.743Z,78.60
2023-02-03T00:09:51.431Z,78.65
2023-02-03T00:12:18.710Z,78.82
2023-02-03T00:14:46.213Z,78.62
2023-02-03T00:17:15.248Z,78.89
2023-02-03T00:19:42.820Z,78.63
2023-02-03T00:22:10.157Z,78.53
2023-02-03T00:24:37.885Z,78.52
2023-02-03T00:27:05.167Z,77.99
2023-02-03T00:29:33.050Z,78.49
2023-02-03T00:32:00.510Z,78.50
2023-02-03T00:34:30.365Z,78.85
2023-02-03T00:36:58.537Z,78.86
2023-02-03T00:39:26.165Z,79.03
2023-02-03T00:41:53.415Z,78.85
2023-02-03T00:44:21.083Z,78.74
2023-02-03T00:46:48.343Z,78.95
2023-02-03T00:49:15.959Z,78.65
2023-02-03T00:51:43.195Z,78.61
2023-02-03T00:54:11.171Z,78.40
2023-02-03T00:56:38.431Z,77.63
2023-02-03T00:59:07.095Z,77.44
2023-02-03T01:01:35.481Z,77.45
2023-02-03T01:04:04.214Z,77.54
2023-02-03T01:06:31.523Z,77.42
2023-02-03T01:08:59.237Z,77.25
2023-02-03T01:11:28.399Z,77.08
2023-02-03T01:13:59.443Z,77.00
2023-02-03T01:16:28.589Z,77.63
2023-02-03T01:18:56.710Z,76.60
2023-02-03T01:21:26.419Z,77.05
2023-02-03T01:23:54.948Z,77.27
2023-02-03T01:26:24.672Z,77.47
2023-02-03T01:28:58.667Z,77.25
2023-02-03T01:31:30.713Z,77.75
2023-02-03T01:33:58.873Z,77.78
2023-02-03T01:36:29.687Z,77.60
2023-02-03T01:38:57.810Z,77.85
2023-02-03T01:41:30.892Z,78.14
2023-02-03T01:44:01.508Z,78.08
2023-02-03T01:46:48.139Z,78.18
2023-02-03T01:49:25.272Z,78.54
2023-02-03T01:51:53.650Z,78.58
2023-02-03T01:54:33.957Z,78.98
2023-02-03T01:57:13.680Z,78.42
2023-02-03T01:59:43.262Z,78.85
2023-02-03T02:02:13.286Z,78.33
2023-02-03T02:05:12.187Z,78.67
2023-02-03T02:07:41.502Z,79.01
2023-02-03T02:10:10.029Z,79.02
2023-02-03T02:12:37.649Z,79.41
2023-02-03T02:15:06.451Z,79.23
2023-02-03T02:17:54.997Z,79.65
2023-02-03T02:20:52.961Z,79.23
2023-02-03T02:23:44.703Z,79.57
2023-02-03T02:26:17.913Z,80.29
2023-02-03T02:29:28.617Z,80.15
2023-02-03T02:32:39.651Z,80.10
2023-02-03T02:35:45.573Z,80.41
2023-02-03T02:39:03.505Z,80.51
2023-02-03T02:41:47.580Z,80.63
2023-02-03T02:44:33.445Z,81.02
2023-02-03T02:47:19.083Z,81.07
2023-02-03T02:49:57.072Z,81.20
2023-02-03T02:52:29.167Z,81.32
2023-02-03T02:55:05.625Z,81.65
2023-02-03T02:57:37.092Z,81.81
2023-02-03T03:00:07.728Z,82.52
2023-02-03T03:02:36.605Z,82.64
2023-02-03T03:05:12.277Z,82.70
2023-02-03T03:07:59.271Z,82.67
2023-02-03T03:10:33.001Z,82.29
2023-02-03T03:13:08.565Z,82.07
2023-02-03T03:15:39.512Z,82.19
2023-02-03T03:18:34.622Z,82.05
2023-02-03T03:21:08.441Z,81.79
2023-02-03T03:23:42.635Z,81.44
2023-02-03T03:26:24.866Z,81.70
2023-02-03T03:29:22.983Z,80.56
2023-02-03T03:31:51.268Z,80.87
2023-02-03T03:34:19.626Z,80.83
2023-02-03T03:37:09.132Z,80.73
2023-02-03T03:39:42.126Z,80.59
2023-02-03T03:42:18.541Z,80.33
2023-02-03T03:45:22.703Z,80.74
2023-02-03T03:47:57.714Z,80.61
2023-02-03T03:50:44.349Z,80.66
2023-02-03T03:53:17.017Z,80.54
2023-02-03T03:55:51.283Z,80.70
2023-02-03T03:58:30.115Z,80.83
2023-02-03T04:01:02.866Z,80.71
2023-02-03T04:03:46.839Z,80.31
2023-02-03T04:06:15.399Z,80.05
2023-02-03T04:08:43.094Z,80.11
2023-02-03T04:11:10.395Z,80.09
2023-02-03T04:13:38.118Z,80.45
2023-02-03T04:16:05.708Z,80.68
2023-02-03T04:18:33.271Z,81.07
2023-02-03T04:21:00.506Z,81.03
2023-02-03T04:23:28.080Z,80.91
2023-02-03T04:25:55.334Z,80.60
2023-02-03T04:28:22.880Z,80.48
2023-02-03T04:30:50.212Z,80.81
2023-02-03T04:33:17.766Z,81.15
2023-02-03T04:35:45.447Z,80.98
2023-02-03T04:38:12.980Z,81.42
2023-02-03T04:40:40.285Z,81.31
2023-02-03T04:43:08.546Z,81.60
2023-02-03T04:45:35.885Z,81.72
2023-02-03T04:48:06.917Z,81.32
2023-02-03T04:50:34.297Z,81.81
2023-02-03T04:53:01.973Z,81.56
2023-02-03T04:55:29.592Z,81.69
2023-02-03T04:57:58.536Z,81.61
2023-02-03T05:00:27.938Z,81.48
2023-02-03T05:02:56.038Z,81.67
2023-02-03T05:05:23.492Z,81.68
2023-02-03T05:07:51.076Z,81.66
2023-02-03T05:10:18.436Z,81.81
2023-02-03T05:12:46.001Z,82.23
2023-02-03T05:15:13.278Z,82.70
2023-02-03T05:17:41.370Z,82.71
2023-02-03T05:20:09.855Z,82.99
2023-02-03T05:22:37.697Z,83.06
2023-02-03T05:25:05.917Z,82.83
2023-02-03T05:27:33.539Z,83.19
2023-02-03T05:30:00.843Z,83.42
2023-02-03T05:32:28.523Z,84.17
2023-02-03T05:34:56.300Z,84.28
2023-02-03T05:37:23.943Z,84.35
2023-02-03T05:39:51.322Z,83.85
2023-02-03T05:42:18.900Z,83.97
2023-02-03T05:44:46.186Z,84.36
2023-02-03T05:47:13.708Z,84.40
2023-02-03T05:49:40.960Z,84.84
2023-02-03T05:52:08.509Z,85.18
2023-02-03T05:54:35.900Z,85.55
2023-02-03T05:57:03.621Z,85.63
2023-02-03T05:59:30.894Z,85.20
2023-02-03T06:01:58.434Z,85.57
2023-02-03T06:04:25.804Z,85.57
2023-02-03T06:06:53.337Z,84.93
2023-02-03T06:09:20.569Z,85.38
2023-02-03T06:11:48.163Z,85.04
2023-02-03T06:14:15.417Z,85.62
2023-02-03T06:16:43.007Z,84.98
2023-02-03T06:19:10.501Z,85.51
2023-02-03T06:21:38.114Z,85.32
2023-02-03T06:24:05.938Z,85.19
2023-02-03T06:26:33.507Z,84.79
2023-02-03T06:29:00.815Z,84.83
2023-02-03T06:31:28.904Z,84.99
2023-02-03T06:33:57.397Z,84.37
2023-02-03T06:36:25.045Z,84.32
2023-02-03T06:38:52.310Z,83.40
2023-02-03T06:41:19.875Z,83.66
2023-02-03T06:43:47.132Z,83.52
2023-02-03T06:46:14.822Z,83.43
2023-02-03T06:48:42.074Z,83.05
2023-02-03T06:51:09.667Z,82.71
2023-02-03T06:53:37.088Z,82.29
2023-02-03T06:56:05.125Z,82.35
2023-02-03T06:58:32.458Z,82.19
2023-02-03T07:01:00.058Z,82.03
2023-02-03T07:03:27.620Z,81.85
2023-02-03T07:05:55.189Z,81.51
2023-02-03T07:08:22.498Z,81.38
2023-02-03T07:10:54.861Z,80.75
2023-02-03T07:13:22.155Z,80.70
2023-02-03T07:15:49.768Z,79.54
2023-02-03T07:18:30.786Z,79.23
2023-02-03T07:21:07.636Z,78.18
2023-02-03T07:23:34.934Z,78.05
2023-02-03T07:26:05.142Z,78.08
2023-02-03T07:28:35.499Z,78.17
2023-02-03T07:31:10.514Z,76.83
2023-02-03T07:33:38.806Z,75.70
2023-02-03T07:36:08.045Z,74.87
2023-02-03T07:38:35.317Z,75.83
2023-02-03T07:41:02.835Z,75.72
2023-02-03T07:43:30.157Z,74.95
2023-02-03T07:45:57.783Z,73.79
2023-02-03T07:48:25.473Z,74.03
2023-02-03T07:50:53.177Z,73.84
2023-02-03T07:53:20.535Z,73.52
2023-02-03T07:55:48.138Z,74.07
2023-02-03T07:58:17.137Z,73.36
2023-02-03T08:00:45.028Z,73.35
2023-02-03T08:03:12.418Z,73.02
2023-02-03T08:05:40.114Z,72.08
2023-02-03T08:08:07.443Z,71.77
2023-02-03T08:10:35.361Z,70.93
2023-02-03T08:13:02.957Z,71.10
2023-02-03T08:15:30.562Z,71.02
2023-02-03T08:17:57.957Z,71.45
2023-02-03T08:20:25.890Z,71.64
2023-02-03T08:22:53.695Z,71.89
2023-02-03T08:25:22.650Z,71.69
2023-02-03T08:27:50.086Z,71.88
2023-02-03T08:30:17.902Z,73.25
2023-02-03T08:32:57.520Z,74.58
2023-02-03T08:35:25.836Z,75.50
2023-02-03T08:37:53.123Z,77.52
2023-02-03T08:40:20.869Z,79.48
2023-02-03T08:42:48.229Z,81.96
2023-02-03T08:45:15.844Z,83.86
2023-02-03T08:47:43.308Z,84.88
2023-02-03T08:50:11.727Z,85.83
2023-02-03T08:52:39.797Z,84.87
2023-02-03T08:55:07.881Z,86.83
2023-02-03T08:57:36.870Z,86.50
2023-02-03T09:00:06.561Z,88.17
2023-02-03T09:02:33.897Z,88.88
2023-02-03T09:05:01.978Z,89.84
2023-02-03T09:07:29.396Z,90.55
2023-02-03T09:09:57.137Z,91.02
2023-02-03T09:12:24.563Z,90.45
2023-02-03T09:14:52.228Z,91.21
2023-02-03T09:17:19.654Z,90.21
2023-02-03T09:19:47.281Z,89.84
2023-02-03T09:22:14.726Z,91.30
2023-02-03T09:24:43.246Z,92.49
2023-02-03T09:27:10.706Z,92.96
2023-02-03T09:29:38.328Z,93.15
2023-02-03T09:32:08.964Z,93.56
2023-02-03T09:34:37.349Z,93.71
2023-02-03T09:37:04.760Z,93.48
2023-02-03T09:39:32.496Z,93.64
2023-02-03T09:42:20.655Z,93.87
2023-02-03T09:45:03.142Z,94.37
2023-02-03T09:47:42.738Z,95.91
2023-02-03T09:50:21.652Z,96.25
2023-02-03T09:52:50.858Z,96.88
2023-02-03T09:55:37.162Z,96.38
2023-02-03T09:58:16.001Z,95.77
2023-02-03T10:00:47.853Z,95.98
2023-02-03T10:03:29.944Z,95.18
2023-02-03T10:06:40.163Z,94.75
2023-02-03T10:09:57.942Z,95.41
2023-02-03T10:12:41.113Z,95.42
2023-02-03T10:15:39.610Z,96.81
2023-02-03T10:18:29.595Z,97.27
2023-02-03T10:21:13.301Z,97.44
2023-02-03T10:23:44.436Z,97.22
2023-02-03T10:26:25.862Z,97.40
2023-02-03T10:29:05.024Z,97.76
2023-02-03T10:31:39.008Z,97.85
2023-02-03T10:34:16.629Z,98.23
2023-02-03T10:36:57.188Z,97.74
2023-02-03T10:39:52.668Z,97.14
2023-02-03T10:42:22.431Z,96.93
2023-02-03T10:44:59.828Z,96.82
2023-02-03T10:47:37.988Z,97.02
2023-02-03T10:50:16.669Z,98.19
2023-02-03T10:52:44.217Z,98.87
2023-02-03T10:55:27.179Z,99.12
2023-02-03T10:57:55.714Z,99.08
2023-02-03T11:00:34.529Z,99.64
2023-02-03T11:03:10.787Z,99.86
2023-02-03T11:05:38.502Z,100.00
2023-02-03T11:08:17.159Z,100.00
2023-02-03T11:10:44.985Z,100.00
2023-02-03T11:13:20.208Z,100.00
2023-02-03T11:16:06.124Z,100.00
2023-02-03T11:18:54.528Z,100.00
2023-02-03T11:21:32.839Z,100.00
2023-02-03T11:24:37.091Z,100.00
2023-02-03T11:27:18.579Z,100.00
2023-02-03T11:30:07.379Z,100.00
2023-02-03T11:32:41.652Z,100.00
2023-02-03T11:35:19.299Z,100.00
2023-02-03T11:37:53.516Z,100.00
2023-02-03T11:40:25.621Z,100.00
2023-02-03T11:42:53.223Z,100.00
2023-02-03T11:45:42.070Z,100.00
2023-02-03T11:48:37.183Z,100.00
2023-02-03T11:51:34.942Z,100.00
2023-02-03T11:54:25.057Z,100.00
2023-02-03T11:57:38.028Z,100.00
2023-02-03T12:00:51.698Z,100.00
2023-02-03T12:03:58.123Z,100.00
2023-02-03T12:07:22.709Z,100.00
2023-02-03T12:10:27.682Z,100.00
2023-02-03T12:13:12.284Z,100.00
2023-02-03T12:15:54.723Z,100.00
2023-02-03T12:18:40.859Z,100.00
2023-02-03T12:21:16.999Z,100.00
2023-02-03T12:24:28.079Z,100.00
2023-02-03T12:27:20.059Z,100.00
2023-02-03T12:30:32.967Z,100.00
2023-02-03T12:33:17.173Z,100.00
2023-02-03T12:36:16.460Z,100.00
2023-02-03T12:39:16.001Z,100.00
2023-02-03T12:42:07.734Z,100.00
2023-02-03T12:45:11.959Z,100.00
2023-02-03T12:48:18.571Z,100.00
2023-02-03T12:50:52.413Z,100.00
2023-02-03T12:53:34.902Z,100.00
2023-02-03T12:56:11.094Z,100.00
2023-02-03T12:58:56.315Z,100.00
2023-02-03T13:01:33.981Z,100.00
2023-02-03T13:04:11.052Z,100.00
2023-02-03T13:07:21.576Z,100.00
2023-02-03T13:10:05.814Z,100.00
2023-02-03T13:12:42.978Z,100.00
2023-02-03T13:15:39.986Z,100.00
2023-02-03T13:18:34.478Z,100.00
2023-02-03T13:21:02.769Z,100.00
2023-02-03T13:23:30.220Z,100.00
2023-02-03T13:26:31.729Z,100.00
2023-02-03T13:29:57.526Z,100.00
2023-02-03T13:32:41.053Z,100.00
2023-02-03T13:35:39.829Z,100.00
2023-02-03T13:38:33.514Z,100.00
2023-02-03T13:41:22.488Z,100.00
2023-02-03T13:43:53.142Z,100.00
2023-02-03T13:46:35.177Z,100.00
2023-02-03T13:49:08.804Z,100.00
2023-02-03T13:51:46.456Z,100.00
2023-02-03T13:54:32.002Z,100.00
2023-02-03T13:57:21.861Z,100.00
2023-02-03T13:59:50.498Z,100.00
2023-02-03T14:02:23.567Z,100.00
2023-02-03T14:04:55.779Z,100.00
2023-02-03T14:07:39.794Z,100.00
2023-02-03T14:10:15.689Z,100.00
2023-02-03T14:12:52.024Z,100.00
2023-02-03T14:15:30.864Z,100.00
2023-02-03T14:18:22.135Z,100.00
2023-02-03T14:20:56.881Z,100.00
2023-02-03T14:23:39.095Z,100.00
2023-02-03T14:26:20.799Z,100.00
2023-02-03T14:28:52.755Z,100.00
2023-02-03T14:31:23.970Z,100.00
2023-02-03T14:34:03.163Z,100.00
2023-02-03T14:36:38.235Z,100.00
2023-02-03T14:39:58.975Z,100.00
2023-02-03T14:43:08.617Z,100.00
2023-02-03T14:46:12.785Z,100.00
2023-02-03T14:49:10.475Z,100.00
2023-02-03T14:52:14.987Z,100.00
2023-02-03T14:55:01.771Z,100.00
2023-02-03T14:57:55.262Z,100.00
2023-02-03T15:00:35.373Z,100.00
2023-02-03T15:03:11.083Z,100.00
2023-02-03T15:05:48.569Z,100.00
2023-02-03T15:08:47.584Z,100.00
2023-02-03T15:11:44.851Z,100.00
2023-02-03T15:14:24.196Z,100.00
2023-02-03T15:17:11.454Z,100.00
2023-02-03T15:19:42.798Z,100.00
2023-02-03T15:22:26.686Z,100.00
2023-02-03T15:25:00.681Z,100.00
2023-02-03T15:27:32.690Z,100.00
2023-02-03T15:30:28.712Z,100.00
2023-02-03T15:33:09.809Z,100.00
2023-02-03T15:35:42.196Z,100.00
2023-02-03T15:38:31.303Z,100.00
2023-02-03T15:40:59.380Z,100.00
2023-02-03T15:43:44.098Z,100.00
2023-02-03T15:46:22.508Z,100.00
2023-02-03T15:49:12.667Z,100.00
2023-02-03T15:51:58.478Z,100.00
2023-02-03T15:54:41.279Z,100.00
2023-02-03T15:57:34.047Z,100.00
2023-02-03T16:00:32.147Z,100.00
2023-02-03T16:03:04.152Z,100.00
2023-02-03T16:05:37.188Z,100.00
2023-02-03T16:08:42.853Z,100.00
2023-02-03T16:11:40.011Z,100.00
2023-02-03T16:14:31.114Z,100.00
2023-02-03T16:17:05.272Z,100.00
2023-02-03T16:19:38.269Z,100.00
2023-02-03T16:22:32.334Z,100.00
2023-02-03T16:25:22.901Z,100.00
2023-02-03T16:28:19.342Z,100.00
2023-02-03T16:31:34.624Z,100.00
2023-02-03T16:34:32.308Z,100.00
2023-02-03T16:37:18.979Z,100.00
2023-02-03T16:40:05.287Z,100.00
2023-02-03T16:42:58.619Z,100.00
2023-02-03T16:45:45.412Z,100.00
2023-02-03T16:48:32.425Z,100.00
2023-02-03T16:51:08.127Z,100.00
2023-02-03T16:53:35.512Z,100.00
2023-02-03T16:56:05.052Z,100.00
2023-02-03T16:58:33.021Z,100.00
2023-02-03T17:01:03.964Z,100.00
2023-02-03T17:03:34.369Z,100.00
2023-02-03T17:06:09.762Z,100.00
2023-02-03T17:08:41.505Z,100.00
2023-02-03T17:11:18.574Z,100.00
2023-02-03T17:13:47.732Z,100.00
2023-02-03T17:16:23.138Z,100.00
2023-02-03T17:18:51.527Z,100.00
2023-02-03T17:21:25.630Z,100.00
2023-02-03T17:23:53.577Z,100.00
2023-02-03T17:26:21.526Z,100.00
2023-02-03T17:28:48.921Z,100.00
2023-02-03T17:31:21.229Z,100.00
2023-02-03T17:33:52.604Z,100.00
2023-02-03T17:36:24.623Z,100.00
2023-02-03T17:55:27.294Z,100.00
2023-02-03T17:57:55.122Z,100.00
2023-02-03T18:00:22.658Z,100.00
2023-02-03T18:02:52.124Z,100.00
2023-02-03T18:05:20.516Z,100.00
2023-02-03T18:10:20.662Z,100.00
2023-02-03T18:12:48.399Z,100.00
2023-02-03T18:15:15.809Z,100.00
2023-02-03T18:17:43.448Z,100.00
2023-02-03T18:20:12.118Z,100.00
2023-02-03T18:22:40.059Z,100.00
2023-02-03T18:25:09.807Z,100.00
2023-02-03T18:27:37.606Z,100.00
2023-02-03T18:30:05.930Z,100.00
2023-02-03T18:32:33.525Z,100.00
2023-02-03T18:35:01.054Z,100.00
2023-02-03T18:37:28.827Z,100.00
2023-02-03T18:39:57.456Z,100.00
2023-02-03T18:42:25.110Z,100.00
2023-02-03T18:44:52.485Z,100.00
2023-02-03T18:47:20.181Z,100.00
2023-02-03T18:49:48.086Z,100.00
2023-02-03T18:52:15.752Z,100.00
2023-02-03T18:54:43.085Z,100.00
2023-02-03T18:57:14.032Z,100.00
2023-02-03T18:59:41.792Z,100.00
2023-02-03T19:02:11.986Z,100.00
2023-02-03T19:04:39.414Z,100.00
2023-02-03T19:07:07.331Z,100.00
2023-02-03T19:09:34.880Z,100.00
2023-02-03T19:12:03.213Z,100.00
2023-02-03T19:14:30.652Z,100.00
2023-02-03T19:16:58.945Z,100.00
2023-02-03T19:19:26.483Z,100.00
2023-02-03T19:21:54.264Z,100.00
2023-02-03T19:24:22.084Z,100.00
2023-02-03T19:26:49.805Z,100.00
2023-02-03T19:29:17.336Z,100.00
2023-02-03T19:31:45.524Z,100.00
2023-02-03T19:34:19.272Z,100.00
2023-02-03T19:36:47.271Z,100.00
2023-02-03T19:39:15.368Z,100.00
2023-02-03T19:41:43.007Z,100.00
2023-02-03T19:44:10.548Z,100.00
2023-02-03T19:46:38.333Z,100.00
2023-02-03T19:49:11.034Z,100.00
2023-02-03T19:51:39.840Z,100.00
2023-02-03T19:54:07.679Z,100.00
2023-02-03T19:56:35.358Z,100.00
2023-02-03T19:59:03.440Z,100.00
2023-02-03T20:01:31.358Z,100.00
2023-02-03T20:03:58.928Z,100.00
2023-02-03T20:06:28.606Z,100.00
2023-02-03T20:08:56.556Z,100.00
2023-02-03T20:11:24.251Z,100.00
2023-02-03T20:13:52.032Z,100.00
2023-02-03T20:16:20.399Z,100.00
2023-02-03T20:18:47.992Z,100.00
2023-02-03T20:21:15.581Z,100.00
2023-02-03T20:23:43.095Z,100.00
2023-02-03T20:26:10.873Z,100.00
2023-02-03T20:28:38.387Z,100.00
2023-02-03T20:31:06.770Z,100.00
2023-02-03T20:33:35.547Z,100.00
2023-02-03T20:36:03.352Z,100.00
2023-02-03T20:38:31.137Z,100.00
2023-02-03T20:40:58.748Z,100.00
2023-02-03T20:43:28.138Z,100.00
2023-02-03T20:45:56.039Z,100.00
2023-02-03T20:48:25.726Z,100.00
2023-02-03T20:50:53.590Z,100.00
2023-02-03T20:53:26.405Z,100.00
2023-02-03T20:56:01.728Z,100.00
2023-02-03T20:58:34.654Z,100.00
2023-02-03T21:01:04.022Z,100.00
2023-02-03T21:03:50.126Z,100.00
2023-02-03T21:06:21.588Z,100.00
2023-02-03T21:08:48.917Z,100.00
2023-02-03T21:11:20.523Z,100.00
2023-02-03T21:13:49.955Z,100.00
2023-02-03T21:16:25.405Z,100.00
2023-02-03T21:18:57.090Z,100.00
2023-02-03T21:21:40.399Z,100.00
2023-02-03T21:24:27.166Z,100.00
2023-02-03T21:26:56.452Z,100.00
2023-02-03T21:29:32.613Z,100.00
2023-02-03T21:32:00.936Z,100.00
2023-02-03T21:34:34.744Z,100.00
2023-02-03T21:37:22.745Z,100.00
2023-02-03T21:39:50.584Z,100.00
2023-02-03T21:42:43.480Z,100.00
2023-02-03T21:45:42.123Z,100.00
2023-02-03T21:48:35.078Z,100.00
2023-02-03T21:51:24.562Z,100.00
2023-02-03T21:53:58.767Z,100.00
2023-02-03T21:56:42.109Z,100.00
2023-02-03T21:59:23.277Z,100.00
2023-02-03T22:01:53.198Z,100.00
2023-02-03T22:04:21.050Z,100.00
2023-02-03T22:06:50.852Z,100.00
2023-02-03T22:09:25.037Z,100.00
2023-02-03T22:11:53.243Z,100.00
2023-02-03T22:14:21.195Z,100.00
2023-02-03T22:16:49.027Z,100.00
2023-02-03T22:19:19.577Z,100.00
2023-02-03T22:21:48.619Z,100.00
2023-02-03T22:24:16.284Z,100.00
2023-02-03T22:26:43.595Z,100.00
2023-02-03T22:29:11.268Z,100.00
2023-02-03T22:31:38.612Z,100.00
2023-02-03T22:34:06.273Z,100.00
2023-02-03T22:36:33.574Z,100.00
2023-02-03T22:39:01.190Z,100.00
2023-02-03T22:41:28.561Z,100.00
2023-02-03T22:43:56.485Z,100.00
2023-02-03T22:46:23.853Z,100.00
2023-02-03T22:48:51.579Z,100.00
2023-02-03T22:51:18.836Z,100.00
2023-02-03T22:53:46.598Z,100.00
2023-02-03T22:56:13.952Z,100.00
2023-02-03T22:58:41.969Z,100.00
2023-02-03T23:01:09.279Z,100.00
2023-02-03T23:03:36.866Z,100.00
2023-02-03T23:06:04.346Z,100.00
2023-02-03T23:08:32.446Z,100.00
2023-02-03T23:10:59.764Z,100.00
2023-02-03T23:13:28.260Z,100.00
2023-02-03T23:15:55.603Z,100.00
2023-02-03T23:18:23.190Z,100.00
2023-02-03T23:20:50.618Z,100.00
2023-02-03T23:23:18.196Z,100.00
2023-02-03T23:25:45.567Z,100.00
2023-02-03T23:28:13.352Z,100.00
2023-02-03T23:30:40.724Z,100.00
2023-02-03T23:33:09.312Z,100.00
2023-02-03T23:35:45.488Z,100.00
2023-02-03T23:38:15.548Z,100.00
2023-02-03T23:40:44.240Z,100.00
2023-02-03T23:43:11.910Z,100.00
2023-02-03T23:45:39.656Z,100.00
2023-02-03T23:48:08.255Z,100.00
2023-02-03T23:50:35.528Z,100.00
2023-02-03T23:53:03.236Z,100.00
2023-02-03T23:55:31.425Z,100.00
2023-02-03T23:57:59.154Z,100.00
